GB-0032 weather

Bath Wilts & North Dorset Gliding Club
Kingston Deverill, England, United Kingdom

Public forecast

Using degrees Celsius for public forecast. Weather courtesy of forecast.io.

METAR (pilot weather report)

Closest report is RNAS Yeovilton, 16.5 nm (30.5 km) WSW. Retrieved 2019/09/23 06:20 UTC (37 minutes ago):

EGDY 230620Z 15002KT 9999 FEW010 10/09 Q1010 NOSIG

TAF (pilot weather forecast)

Forecast is more than 12 hours old.

Closest forecast is RNAS Yeovilton, 16.5 nm (30.5 km) WSW. Retrieved 2019/05/01 18:06 UTC (5 months ago):

TAF TAF EGDY 010100Z 3018/0103 CNL